createdAt,value
2023-02-02T00:01:32.422Z,98794.78
2023-02-02T00:03:59.680Z,98778.94
2023-02-02T00:06:27.692Z,98762.75
2023-02-02T00:08:57.388Z,98773.09
2023-02-02T00:11:24.495Z,98770.81
2023-02-02T00:13:50.957Z,98772.22
2023-02-02T00:16:26.409Z,98769.19
2023-02-02T00:18:57.773Z,98765.75
2023-02-02T00:21:24.843Z,98755.38
2023-02-02T00:23:52.017Z,98764.44
2023-02-02T00:26:19.576Z,98753.91
2023-02-02T00:28:46.095Z,98756.59
2023-02-02T00:31:13.584Z,98762.22
2023-02-02T00:33:40.021Z,98752.38
2023-02-02T00:36:06.956Z,98752.38
2023-02-02T00:38:34.590Z,98756.78
2023-02-02T00:41:01.021Z,98759.06
2023-02-02T00:43:27.439Z,98765.81
2023-02-02T00:45:54.282Z,98757.09
2023-02-02T00:48:21.566Z,98768.28
2023-02-02T00:50:47.991Z,98771.59
2023-02-02T00:53:14.573Z,98766.94
2023-02-02T00:55:40.978Z,98763.69
2023-02-02T00:58:07.766Z,98769.63
2023-02-02T01:00:34.182Z,98787.09
2023-02-02T01:03:04.481Z,98773.59
2023-02-02T01:05:32.118Z,98783.16
2023-02-02T01:07:58.625Z,98788.38
2023-02-02T01:10:25.097Z,98789.69
2023-02-02T01:12:51.611Z,98791.84
2023-02-02T01:15:18.161Z,98779.47
2023-02-02T01:17:44.642Z,98779.31
2023-02-02T01:20:18.366Z,98727.28
2023-02-02T01:22:45.029Z,98780.94
2023-02-02T01:25:11.715Z,98785.19
2023-02-02T01:27:38.167Z,98782.09
2023-02-02T01:30:05.100Z,98785.16
2023-02-02T01:32:31.526Z,98777.16
2023-02-02T01:34:58.015Z,98785.38
2023-02-02T01:37:24.450Z,98793.50
2023-02-02T01:39:50.863Z,98795.97
2023-02-02T01:42:22.301Z,98788.22
2023-02-02T01:45:07.579Z,98798.31
2023-02-02T01:47:40.898Z,98787.44
2023-02-02T01:50:10.786Z,98794.84
2023-02-02T01:52:38.590Z,98769.88
2023-02-02T01:55:09.422Z,98800.44
2023-02-02T01:57:38.736Z,98806.91
2023-02-02T02:00:10.934Z,98800.97
2023-02-02T02:02:44.354Z,98791.16
2023-02-02T02:05:12.598Z,98796.06
2023-02-02T02:07:43.507Z,98786.31
2023-02-02T02:10:10.532Z,98793.66
2023-02-02T02:12:38.268Z,98799.59
2023-02-02T02:15:23.865Z,98791.03
2023-02-02T02:18:21.444Z,98803.50
2023-02-02T02:21:48.936Z,98796.06
2023-02-02T02:24:46.454Z,98800.19
2023-02-02T02:27:43.941Z,98793.91
2023-02-02T02:30:39.844Z,98794.59
2023-02-02T02:33:16.051Z,98751.38
2023-02-02T02:36:03.676Z,98792.16
2023-02-02T02:38:38.201Z,98790.69
2023-02-02T02:41:13.778Z,98793.28
2023-02-02T02:43:54.312Z,98792.78
2023-02-02T02:46:22.177Z,98797.63
2023-02-02T02:48:50.920Z,98790.69
2023-02-02T02:51:45.311Z,98799.25
2023-02-02T02:54:52.605Z,98796.25
2023-02-02T02:57:41.864Z,98800.97
2023-02-02T03:00:55.385Z,98795.97
2023-02-02T03:03:45.705Z,98791.63
2023-02-02T03:06:29.067Z,98799.72
2023-02-02T03:09:00.371Z,98795.28
2023-02-02T03:11:27.142Z,98796.66
2023-02-02T03:13:55.571Z,98794.50
2023-02-02T03:16:22.158Z,98766.34
2023-02-02T03:18:48.621Z,98804.00
2023-02-02T03:21:15.027Z,98804.84
2023-02-02T03:23:41.481Z,98803.56
2023-02-02T03:26:08.265Z,98803.84
2023-02-02T03:28:35.576Z,98812.44
2023-02-02T03:31:02.319Z,98799.53
2023-02-02T03:33:30.620Z,98765.38
2023-02-02T03:35:57.078Z,98791.97
2023-02-02T03:38:23.482Z,98786.56
2023-02-02T03:40:51.524Z,98782.41
2023-02-02T03:43:25.421Z,98798.03
2023-02-02T03:45:56.830Z,98788.63
2023-02-02T03:48:23.320Z,98798.44
2023-02-02T03:50:50.301Z,98799.38
2023-02-02T03:53:16.723Z,98802.38
2023-02-02T03:55:43.135Z,98809.00
2023-02-02T03:58:09.643Z,98799.53
2023-02-02T04:00:36.386Z,98767.94
2023-02-02T04:03:03.012Z,98808.78
2023-02-02T04:05:29.625Z,98804.84
2023-02-02T04:07:56.088Z,98807.03
2023-02-02T04:10:22.926Z,98819.19
2023-02-02T04:12:49.424Z,98810.75
2023-02-02T04:15:15.910Z,98810.75
2023-02-02T04:17:42.570Z,98822.53
2023-02-02T04:20:09.932Z,98799.25
2023-02-02T04:22:36.390Z,98821.63
2023-02-02T04:25:02.801Z,98811.06
2023-02-02T04:27:32.579Z,98812.06
2023-02-02T04:29:59.061Z,98818.34
2023-02-02T04:32:25.636Z,98819.22
2023-02-02T04:34:52.073Z,98823.78
2023-02-02T04:37:18.530Z,98825.09
2023-02-02T04:39:45.133Z,98832.16
2023-02-02T04:42:11.539Z,98834.66
2023-02-02T04:44:38.486Z,98841.91
2023-02-02T04:47:04.886Z,98840.09
2023-02-02T04:49:31.740Z,98852.97
2023-02-02T04:51:58.146Z,98869.84
2023-02-02T04:54:24.643Z,98852.44
2023-02-02T04:56:51.229Z,98862.97
2023-02-02T04:59:17.762Z,98868.63
2023-02-02T05:01:44.172Z,98855.56
2023-02-02T05:04:11.709Z,98825.59
2023-02-02T05:06:38.169Z,98872.91
2023-02-02T05:09:04.800Z,98875.50
2023-02-02T05:11:31.245Z,98815.34
2023-02-02T05:13:57.698Z,98833.34
2023-02-02T05:16:24.329Z,98876.84
2023-02-02T05:18:53.007Z,98881.31
2023-02-02T05:21:20.788Z,98881.91
2023-02-02T05:23:47.398Z,98890.72
2023-02-02T05:26:17.427Z,98894.84
2023-02-02T05:28:44.351Z,98879.53
2023-02-02T05:31:11.253Z,98889.44
2023-02-02T05:33:38.060Z,98879.19
2023-02-02T05:36:05.075Z,98873.06
2023-02-02T05:38:32.274Z,98879.53
2023-02-02T05:40:58.749Z,98881.84
2023-02-02T05:43:27.196Z,98886.84
2023-02-02T05:45:53.990Z,98862.09
2023-02-02T05:48:20.547Z,98895.50
2023-02-02T05:50:55.444Z,98895.66
2023-02-02T05:53:23.042Z,98904.63
2023-02-02T05:55:49.436Z,98888.56
2023-02-02T05:58:15.855Z,98887.56
2023-02-02T06:00:42.260Z,98880.09
2023-02-02T06:03:08.789Z,98877.50
2023-02-02T06:05:35.272Z,98865.25
2023-02-02T06:08:01.730Z,98892.72
2023-02-02T06:10:28.119Z,98897.91
2023-02-02T06:12:54.543Z,98890.72
2023-02-02T06:15:21.677Z,98860.13
2023-02-02T06:17:48.082Z,98912.38
2023-02-02T06:20:14.758Z,98917.31
2023-02-02T06:22:42.762Z,98916.00
2023-02-02T06:25:09.595Z,98914.72
2023-02-02T06:27:36.136Z,98910.25
2023-02-02T06:30:02.662Z,98914.59
2023-02-02T06:32:30.482Z,98906.50
2023-02-02T06:34:56.907Z,98904.19
2023-02-02T06:37:23.370Z,98900.59
2023-02-02T06:39:49.797Z,98901.06
2023-02-02T06:42:21.691Z,98907.91
2023-02-02T06:44:48.733Z,98902.00
2023-02-02T06:47:15.178Z,98909.66
2023-02-02T06:49:41.615Z,98913.28
2023-02-02T06:52:08.159Z,98908.72
2023-02-02T06:54:34.676Z,98916.94
2023-02-02T06:57:01.054Z,98919.88
2023-02-02T06:59:27.489Z,98904.81
2023-02-02T07:01:53.968Z,98907.66
2023-02-02T07:04:20.683Z,98897.94
2023-02-02T07:06:47.310Z,98893.03
2023-02-02T07:09:14.681Z,98907.72
2023-02-02T07:11:42.795Z,98904.69
2023-02-02T07:14:11.824Z,98916.25
2023-02-02T07:16:38.311Z,98915.28
2023-02-02T07:19:04.753Z,98914.44
2023-02-02T07:21:35.921Z,98920.75
2023-02-02T07:24:03.859Z,98921.25
2023-02-02T07:26:30.370Z,98917.63
2023-02-02T07:28:57.008Z,98909.72
2023-02-02T07:31:25.607Z,98921.66
2023-02-02T07:33:53.060Z,98916.38
2023-02-02T07:36:21.477Z,98925.25
2023-02-02T07:38:50.343Z,98932.53
2023-02-02T07:41:17.072Z,98939.63
2023-02-02T07:43:47.380Z,98955.00
2023-02-02T07:46:14.388Z,98948.00
2023-02-02T07:48:40.933Z,98950.66
2023-02-02T07:51:16.474Z,98952.81
2023-02-02T07:53:48.098Z,98958.44
2023-02-02T07:56:17.734Z,98971.97
2023-02-02T07:58:44.791Z,98949.06
2023-02-02T08:01:13.377Z,98976.91
2023-02-02T08:03:40.494Z,98973.75
2023-02-02T08:06:17.417Z,98977.72
2023-02-02T08:08:44.498Z,98982.19
2023-02-02T08:11:12.630Z,98980.75
2023-02-02T08:13:41.202Z,98971.81
2023-02-02T08:16:08.212Z,98975.47
2023-02-02T08:18:35.745Z,98975.19
2023-02-02T08:21:04.824Z,98946.13
2023-02-02T08:23:31.445Z,98972.19
2023-02-02T08:26:08.242Z,99004.88
2023-02-02T08:28:36.412Z,98985.72
2023-02-02T08:31:14.745Z,98972.38
2023-02-02T08:33:41.672Z,98998.53
2023-02-02T08:36:12.427Z,99006.16
2023-02-02T08:38:39.015Z,99005.69
2023-02-02T08:41:07.524Z,98989.78
2023-02-02T08:43:34.620Z,98981.03
2023-02-02T08:46:05.380Z,98975.56
2023-02-02T08:48:32.469Z,98974.28
2023-02-02T08:50:59.214Z,98988.81
2023-02-02T08:53:26.603Z,98992.28
2023-02-02T08:56:10.737Z,98999.25
2023-02-02T08:58:37.955Z,99002.50
2023-02-02T09:01:20.186Z,99001.69
2023-02-02T09:03:47.026Z,99001.03
2023-02-02T09:06:16.199Z,99023.00
2023-02-02T09:08:43.313Z,99017.47
2023-02-02T09:11:17.834Z,99023.59
2023-02-02T09:13:46.581Z,99021.28
2023-02-02T09:16:15.771Z,99001.81
2023-02-02T09:18:43.348Z,99004.78
2023-02-02T09:21:12.381Z,98997.16
2023-02-02T09:23:40.655Z,98983.91
2023-02-02T09:26:19.150Z,99003.75
2023-02-02T09:28:56.737Z,99000.44
2023-02-02T09:31:24.795Z,99007.16
2023-02-02T09:33:51.840Z,99011.75
2023-02-02T09:36:20.926Z,99013.81
2023-02-02T09:38:48.716Z,99016.91
2023-02-02T09:41:33.660Z,99020.72
2023-02-02T09:44:34.642Z,99023.03
2023-02-02T09:47:18.110Z,99020.44
2023-02-02T09:49:53.571Z,99007.34
2023-02-02T09:52:25.949Z,99008.84
2023-02-02T09:54:57.924Z,99020.09
2023-02-02T09:57:30.977Z,99016.47
2023-02-02T09:59:58.125Z,99005.94
2023-02-02T10:02:33.741Z,99032.69
2023-02-02T10:05:13.281Z,99029.22
2023-02-02T10:07:45.499Z,99036.03
2023-02-02T10:10:18.934Z,99044.25
2023-02-02T10:12:58.203Z,99044.56
2023-02-02T10:15:37.108Z,99043.56
2023-02-02T10:18:18.695Z,99054.81
2023-02-02T10:21:02.453Z,99060.44
2023-02-02T10:23:42.434Z,99052.34
2023-02-02T10:26:19.825Z,99046.31
2023-02-02T10:29:14.640Z,99055.19
2023-02-02T10:31:44.160Z,99056.19
2023-02-02T10:34:18.591Z,99058.34
2023-02-02T10:36:55.561Z,99056.38
2023-02-02T10:39:30.037Z,99069.91
2023-02-02T10:42:13.426Z,99062.97
2023-02-02T10:44:45.557Z,99069.75
2023-02-02T10:47:22.446Z,99071.75
2023-02-02T10:50:00.636Z,99066.09
2023-02-02T10:52:33.819Z,99072.81
2023-02-02T10:55:28.723Z,99070.34
2023-02-02T10:58:12.084Z,99081.94
2023-02-02T11:00:55.508Z,99075.34
2023-02-02T11:03:26.180Z,99074.72
2023-02-02T11:06:12.688Z,99081.28
2023-02-02T11:08:42.774Z,99065.44
2023-02-02T11:11:26.725Z,99062.75
2023-02-02T11:13:59.161Z,99078.31
2023-02-02T11:16:42.256Z,99080.94
2023-02-02T11:19:21.882Z,99072.31
2023-02-02T11:22:00.999Z,99079.88
2023-02-02T11:24:31.593Z,99082.81
2023-02-02T11:27:02.028Z,99092.34
2023-02-02T11:29:33.426Z,99076.09
2023-02-02T11:32:30.730Z,99081.41
2023-02-02T11:35:06.276Z,99081.50
2023-02-02T11:37:39.048Z,99050.03
2023-02-02T11:40:33.215Z,99077.28
2023-02-02T11:43:03.721Z,99061.16
2023-02-02T11:45:37.327Z,99067.81
2023-02-02T11:48:22.881Z,99053.47
2023-02-02T11:50:54.657Z,99060.69
2023-02-02T11:53:36.788Z,99068.34
2023-02-02T11:56:17.541Z,99074.28
2023-02-02T11:58:51.983Z,99075.56
2023-02-02T12:01:36.292Z,99087.28
2023-02-02T12:04:13.569Z,99080.72
2023-02-02T12:06:40.058Z,99080.47
2023-02-02T12:09:17.636Z,99088.81
2023-02-02T12:11:50.077Z,99095.78
2023-02-02T12:14:38.564Z,99086.72
2023-02-02T12:17:22.520Z,99083.06
2023-02-02T12:20:27.605Z,99084.34
2023-02-02T12:23:12.935Z,99081.50
2023-02-02T12:26:05.612Z,99077.34
2023-02-02T12:29:09.510Z,99074.28
2023-02-02T12:31:47.817Z,99068.00
2023-02-02T12:34:23.430Z,99066.44
2023-02-02T12:37:03.338Z,99034.91
2023-02-02T12:39:37.015Z,99066.53
2023-02-02T12:42:41.798Z,99061.88
2023-02-02T12:45:24.063Z,99068.06
2023-02-02T12:48:22.502Z,99068.94
2023-02-02T12:51:06.725Z,99059.91
2023-02-02T12:54:32.997Z,99060.25
2023-02-02T12:57:32.057Z,99062.22
2023-02-02T13:00:42.535Z,99061.50
2023-02-02T13:03:35.463Z,99069.19
2023-02-02T13:06:13.945Z,98981.84
2023-02-02T13:08:52.775Z,99053.28
2023-02-02T13:11:35.920Z,99062.50
2023-02-02T13:14:17.752Z,99026.25
2023-02-02T13:16:49.401Z,99053.09
2023-02-02T13:19:32.262Z,99048.25
2023-02-02T13:22:02.075Z,99061.28
2023-02-02T13:24:31.413Z,99041.31
2023-02-02T13:27:01.858Z,99051.72
2023-02-02T13:29:52.610Z,99057.50
2023-02-02T13:32:26.797Z,99078.34
2023-02-02T13:35:13.462Z,99063.19
2023-02-02T13:37:51.774Z,99059.28
2023-02-02T13:40:21.339Z,99060.09
2023-02-02T13:42:51.705Z,99068.34
2023-02-02T13:45:35.653Z,99028.91
2023-02-02T13:48:30.142Z,99058.19
2023-02-02T13:51:13.930Z,99062.03
2023-02-02T13:54:02.100Z,99065.69
2023-02-02T13:56:37.756Z,99056.06
2023-02-02T13:59:12.337Z,99042.13
2023-02-02T14:01:41.497Z,99047.78
2023-02-02T14:04:21.725Z,99061.97
2023-02-02T14:06:59.222Z,99057.59
2023-02-02T14:09:29.168Z,99003.97
2023-02-02T14:11:59.579Z,99030.56
2023-02-02T14:14:32.125Z,99020.41
2023-02-02T14:17:33.663Z,99072.78
2023-02-02T14:20:06.633Z,99074.13
2023-02-02T14:22:41.214Z,99070.00
2023-02-02T14:25:29.708Z,98980.59
2023-02-02T14:28:01.561Z,99075.38
2023-02-02T14:30:34.453Z,99083.03
2023-02-02T14:33:25.117Z,99059.47
2023-02-02T14:35:52.755Z,99076.28
2023-02-02T14:38:39.875Z,99068.06
2023-02-02T14:41:49.116Z,99075.72
2023-02-02T14:44:16.216Z,99093.44
2023-02-02T14:46:48.201Z,99086.41
2023-02-02T14:49:25.782Z,99092.84
2023-02-02T14:51:55.902Z,99099.31
2023-02-02T14:54:43.238Z,99101.16
2023-02-02T14:57:28.933Z,99117.53
2023-02-02T15:00:01.108Z,99086.78
2023-02-02T15:02:37.873Z,99057.06
2023-02-02T15:05:29.414Z,99126.44
2023-02-02T15:08:20.464Z,99128.81
2023-02-02T15:10:56.697Z,99136.41
2023-02-02T15:13:37.393Z,99136.06
2023-02-02T15:16:24.830Z,99141.13
2023-02-02T15:19:00.103Z,99119.69
2023-02-02T15:21:29.035Z,99142.06
2023-02-02T15:23:56.597Z,99155.31
2023-02-02T15:26:32.915Z,99155.69
2023-02-02T15:29:03.054Z,99157.88
2023-02-02T15:31:39.638Z,99165.16
2023-02-02T15:34:27.175Z,99156.91
2023-02-02T15:37:05.506Z,99164.56
2023-02-02T15:39:37.897Z,99162.41
2023-02-02T15:42:32.101Z,99165.53
2023-02-02T15:44:58.527Z,99168.34
2023-02-02T15:47:33.323Z,99170.69
2023-02-02T15:50:00.115Z,99159.78
2023-02-02T15:52:35.769Z,99178.00
2023-02-02T15:55:02.377Z,99181.28
2023-02-02T15:57:34.108Z,99184.97
2023-02-02T16:00:22.210Z,99191.00
2023-02-02T16:02:52.658Z,99187.41
2023-02-02T16:05:26.361Z,99201.28
2023-02-02T16:08:05.055Z,99209.53
2023-02-02T16:10:32.553Z,99207.91
2023-02-02T16:12:59.075Z,99217.84
2023-02-02T16:15:29.533Z,99221.31
2023-02-02T16:18:00.641Z,99230.75
2023-02-02T16:20:30.044Z,99239.22
2023-02-02T16:23:05.904Z,99247.19
2023-02-02T16:25:36.664Z,99246.72
2023-02-02T16:28:03.944Z,99265.28
2023-02-02T16:30:35.485Z,99250.91
2023-02-02T16:33:37.954Z,99268.25
2023-02-02T16:36:24.279Z,99264.81
2023-02-02T16:38:52.836Z,99262.97
2023-02-02T16:41:28.704Z,99278.72
2023-02-02T16:43:55.885Z,99276.22
2023-02-02T16:46:43.066Z,99276.19
2023-02-02T16:49:23.398Z,99281.81
2023-02-02T16:52:11.886Z,99269.44
2023-02-02T16:54:42.824Z,99269.63
2023-02-02T16:57:17.058Z,99258.03
2023-02-02T16:59:50.352Z,99278.03
2023-02-02T17:02:23.708Z,99279.50
2023-02-02T17:04:58.400Z,99255.22
2023-02-02T17:07:25.542Z,99290.75
2023-02-02T17:10:12.775Z,99293.91
2023-02-02T17:12:39.500Z,99304.69
2023-02-02T17:15:18.337Z,99304.19
2023-02-02T17:17:49.244Z,99308.97
2023-02-02T17:20:17.751Z,99316.78
2023-02-02T17:22:49.009Z,99287.34
2023-02-02T17:25:18.185Z,99308.66
2023-02-02T17:27:45.413Z,99287.50
2023-02-02T17:30:17.288Z,99322.91
2023-02-02T17:32:43.906Z,99316.94
2023-02-02T17:35:19.148Z,99319.09
2023-02-02T17:37:45.588Z,99318.72
2023-02-02T17:40:19.627Z,99317.25
2023-02-02T17:42:49.332Z,99332.19
2023-02-02T17:45:34.265Z,99323.25
2023-02-02T17:48:01.567Z,99325.56
2023-02-02T17:50:29.475Z,99339.47
2023-02-02T17:52:56.214Z,99342.25
2023-02-02T17:55:27.643Z,99340.13
2023-02-02T17:57:54.316Z,99338.63
2023-02-02T18:00:24.829Z,99328.53
2023-02-02T18:03:02.444Z,99345.75
2023-02-02T18:05:29.001Z,99346.25
2023-02-02T18:07:55.421Z,99349.88
2023-02-02T18:10:26.654Z,99348.91
2023-02-02T18:12:53.283Z,99342.78
2023-02-02T18:15:19.758Z,99346.78
2023-02-02T18:17:46.393Z,99345.28
2023-02-02T18:20:17.246Z,99358.72
2023-02-02T18:22:44.221Z,99354.88
2023-02-02T18:25:11.315Z,99352.56
2023-02-02T18:27:37.760Z,99345.13
2023-02-02T18:30:04.615Z,99331.56
2023-02-02T18:32:31.443Z,99340.63
2023-02-02T18:34:57.848Z,99327.56
2023-02-02T18:37:25.834Z,99337.53
2023-02-02T18:39:52.495Z,99340.81
2023-02-02T18:42:19.725Z,99333.38
2023-02-02T18:44:46.362Z,99230.22
2023-02-02T18:47:12.758Z,99342.16
2023-02-02T18:49:39.272Z,99347.44
2023-02-02T18:52:05.775Z,99339.16
2023-02-02T18:54:33.889Z,99356.38
2023-02-02T18:57:00.287Z,99345.63
2023-02-02T18:59:28.416Z,99344.09
2023-02-02T19:01:55.927Z,99330.91
2023-02-02T19:04:22.567Z,99316.84
2023-02-02T19:07:07.687Z,99322.63
2023-02-02T19:09:34.711Z,99328.72
2023-02-02T19:12:01.836Z,99334.03
2023-02-02T19:14:31.920Z,99275.16
2023-02-02T19:17:22.268Z,99324.28
2023-02-02T19:19:50.372Z,99323.63
2023-02-02T19:22:20.216Z,99323.28
2023-02-02T19:24:47.263Z,99330.72
2023-02-02T19:27:24.844Z,99331.56
2023-02-02T19:29:55.707Z,99355.22
2023-02-02T19:32:27.223Z,99344.28
2023-02-02T19:34:57.210Z,99337.84
2023-02-02T19:37:26.198Z,99336.84
2023-02-02T19:40:10.660Z,99338.50
2023-02-02T19:42:43.547Z,99339.81
2023-02-02T19:45:28.287Z,99349.41
2023-02-02T19:47:59.540Z,99341.81
2023-02-02T19:50:33.033Z,99337.34
2023-02-02T19:53:02.219Z,99340.16
2023-02-02T19:55:36.052Z,99341.31
2023-02-02T19:58:15.893Z,99338.50
2023-02-02T20:00:44.681Z,99341.50
2023-02-02T20:03:15.570Z,99336.03
2023-02-02T20:05:45.381Z,99344.47
2023-02-02T20:08:28.832Z,99339.03
2023-02-02T20:10:58.791Z,99342.16
2023-02-02T20:13:30.010Z,99342.81
2023-02-02T20:16:03.582Z,99344.47
2023-02-02T20:18:44.259Z,99313.53
2023-02-02T20:21:25.776Z,99358.03
2023-02-02T20:23:52.979Z,99343.97
2023-02-02T20:26:29.310Z,99363.19
2023-02-02T20:29:01.747Z,99358.53
2023-02-02T20:31:38.516Z,99342.81
2023-02-02T20:34:28.671Z,99364.34
2023-02-02T20:37:03.173Z,99360.34
2023-02-02T20:39:40.828Z,99358.03
2023-02-02T20:42:07.425Z,99361.34
2023-02-02T20:44:34.931Z,99368.94
2023-02-02T20:47:01.855Z,99364.63
2023-02-02T20:49:32.054Z,99371.09
2023-02-02T20:52:01.722Z,99340.50
2023-02-02T20:54:28.812Z,99365.97
2023-02-02T20:56:55.346Z,99367.47
2023-02-02T20:59:22.166Z,99258.13
2023-02-02T21:01:50.099Z,99317.34
2023-02-02T21:04:17.693Z,99356.22
2023-02-02T21:06:44.369Z,99377.88
2023-02-02T21:09:11.529Z,99380.19
2023-02-02T21:11:38.458Z,99370.44
2023-02-02T21:14:05.671Z,99364.31
2023-02-02T21:16:32.791Z,99363.31
2023-02-02T21:18:59.280Z,99361.81
2023-02-02T21:21:26.188Z,99376.56
2023-02-02T21:23:52.682Z,99374.56
2023-02-02T21:26:22.051Z,99378.56
2023-02-02T21:28:48.987Z,99336.69
2023-02-02T21:31:17.575Z,99378.22
2023-02-02T21:33:46.874Z,99377.53
2023-02-02T21:36:29.840Z,99376.56
2023-02-02T21:39:36.869Z,99366.47
2023-02-02T21:42:09.591Z,99370.63
2023-02-02T21:44:41.530Z,99363.97
2023-02-02T21:47:29.795Z,99361.00
2023-02-02T21:49:59.157Z,99368.63
2023-02-02T21:52:32.046Z,99359.38
2023-02-02T21:54:58.465Z,99365.31
2023-02-02T21:57:35.555Z,99373.25
2023-02-02T22:00:25.409Z,99365.97
2023-02-02T22:02:53.473Z,99371.59
2023-02-02T22:05:28.882Z,99368.13
2023-02-02T22:07:58.672Z,99354.53
2023-02-02T22:10:43.217Z,99377.22
2023-02-02T22:13:24.852Z,99371.91
2023-02-02T22:15:53.097Z,99370.28
2023-02-02T22:18:22.871Z,99368.78
2023-02-02T22:20:57.332Z,99370.25
2023-02-02T22:23:27.409Z,99368.94
2023-02-02T22:25:58.973Z,99333.53
2023-02-02T22:28:32.851Z,99355.72
2023-02-02T22:31:00.929Z,99271.72
2023-02-02T22:33:27.753Z,99343.31
2023-02-02T22:35:54.260Z,99353.06
2023-02-02T22:38:22.807Z,99304.28
2023-02-02T22:40:50.703Z,99340.66
2023-02-02T22:43:18.829Z,99343.13
2023-02-02T22:45:46.721Z,99349.91
2023-02-02T22:48:14.490Z,99352.41
2023-02-02T22:50:42.071Z,99339.81
2023-02-02T22:53:09.299Z,99345.44
2023-02-02T22:55:35.761Z,99356.69
2023-02-02T22:58:02.246Z,99363.31
2023-02-02T23:00:32.197Z,99360.19
2023-02-02T23:02:58.928Z,99350.41
2023-02-02T23:05:26.877Z,99370.94
2023-02-02T23:07:54.026Z,99365.31
2023-02-02T23:10:24.228Z,99384.00
2023-02-02T23:12:53.479Z,99371.94
2023-02-02T23:15:20.941Z,99376.72
2023-02-02T23:17:47.460Z,99391.94
2023-02-02T23:20:14.441Z,99390.13
2023-02-02T23:22:40.913Z,99378.72
2023-02-02T23:25:07.867Z,99382.19
2023-02-02T23:27:34.678Z,99389.81
2023-02-02T23:30:01.174Z,99387.50
2023-02-02T23:32:27.674Z,99394.75
2023-02-02T23:34:54.102Z,99396.25
2023-02-02T23:37:20.939Z,99406.03
2023-02-02T23:39:47.367Z,99398.41
2023-02-02T23:42:13.894Z,99392.09
2023-02-02T23:44:41.313Z,99400.38
2023-02-02T23:47:08.255Z,99392.13
2023-02-02T23:49:35.053Z,99386.00
2023-02-02T23:52:01.727Z,99374.25
2023-02-02T23:54:29.039Z,99378.88
2023-02-02T23:56:56.625Z,99368.78
2023-02-02T23:59:23.089Z,99380.56
